地図

経路データ

SID SEASON NUMBER BASIN SUBBASIN NAME ISO_TIME NATURE LAT LON WMO_WIND WMO_PRES WMO_AGENCY TRACK_TYPE DIST2LAND LANDFALL IFLAG USA_AGENCY USA_ATCF_ID USA_LAT USA_LON USA_RECORD USA_STATUS USA_WIND USA_PRES USA_SSHS USA_R34_NE USA_R34_SE USA_R34_SW USA_R34_NW USA_R50_NE USA_R50_SE USA_R50_SW USA_R50_NW USA_R64_NE USA_R64_SE USA_R64_SW USA_R64_NW USA_POCI USA_ROCI USA_RMW USA_EYE TOKYO_LAT TOKYO_LON TOKYO_GRADE TOKYO_WIND TOKYO_PRES TOKYO_R50_DIR TOKYO_R50_LONG TOKYO_R50_SHORT TOKYO_R30_DIR TOKYO_R30_LONG TOKYO_R30_SHORT TOKYO_LAND CMA_LAT CMA_LON CMA_CAT CMA_WIND CMA_PRES HKO_LAT HKO_LON HKO_CAT HKO_WIND HKO_PRES NEWDELHI_LAT NEWDELHI_LON NEWDELHI_GRADE NEWDELHI_WIND NEWDELHI_PRES NEWDELHI_CI NEWDELHI_DP NEWDELHI_POCI REUNION_LAT REUNION_LON REUNION_TYPE REUNION_WIND REUNION_PRES REUNION_TNUM REUNION_CI REUNION_RMW REUNION_R34_NE REUNION_R34_SE REUNION_R34_SW REUNION_R34_NW REUNION_R50_NE REUNION_R50_SE REUNION_R50_SW REUNION_R50_NW REUNION_R64_NE REUNION_R64_SE REUNION_R64_SW REUNION_R64_NW BOM_LAT BOM_LON BOM_TYPE BOM_WIND BOM_PRES BOM_TNUM BOM_CI BOM_RMW BOM_R34_NE BOM_R34_SE BOM_R34_SW BOM_R34_NW BOM_R50_NE BOM_R50_SE BOM_R50_SW BOM_R50_NW BOM_R64_NE BOM_R64_SE BOM_R64_SW BOM_R64_NW BOM_ROCI BOM_POCI BOM_EYE BOM_POS_METHOD BOM_PRES_METHOD NADI_LAT NADI_LON NADI_CAT NADI_WIND NADI_PRES WELLINGTON_LAT WELLINGTON_LON WELLINGTON_WIND WELLINGTON_PRES DS824_LAT DS824_LON DS824_STAGE DS824_WIND DS824_PRES TD9636_LAT TD9636_LON TD9636_STAGE TD9636_WIND TD9636_PRES TD9635_LAT TD9635_LON TD9635_WIND TD9635_PRES TD9635_ROCI NEUMANN_LAT NEUMANN_LON NEUMANN_CLASS NEUMANN_WIND NEUMANN_PRES MLC_LAT MLC_LON MLC_CLASS MLC_WIND MLC_PRES USA_GUST BOM_GUST BOM_GUST_PER REUNION_GUST REUNION_GUST_PER USA_SEAHGT USA_SEARAD_NE USA_SEARAD_SE USA_SEARAD_SW USA_SEARAD_NW STORM_SPEED STORM_DIR
1983022S10218 1983 5 SP MM NANO 1983-01-21 12:00:00 NR -10.0000 -142.000 30 997 wellington main 3312 3312 ________O_____ -1 -10.0000 -142.000 30 997 10 121
1983022S10218 1983 5 SP MM NANO 1983-01-21 15:00:00 NR -10.2615 -141.566 main 3349 3349 ________P_____ -1 -10.2615 -141.566 30 997 10 122
1983022S10218 1983 5 SP MM NANO 1983-01-21 18:00:00 NR -10.5182 -141.156 main 3389 3389 ________P_____ -1 -10.5182 -141.156 30 997 9 124
1983022S10218 1983 5 SP MM NANO 1983-01-21 21:00:00 NR -10.7657 -140.792 main 3427 3427 ________P_____ -1 -10.7657 -140.792 30 997 8 127
1983022S10218 1983 5 SP MM NANO 1983-01-22 00:00:00 NR -11.0000 -140.500 30 997 wellington main 3456 3456 ________O_____ -1 -11.0000 -140.500 30 997 7 133
1983022S10218 1983 5 SP MM NANO 1983-01-22 03:00:00 NR -11.2182 -140.295 main 3474 3473 ________P_____ -1 -11.2182 -140.295 30 997 5 142
1983022S10218 1983 5 SP MM NANO 1983-01-22 06:00:00 NR -11.4222 -140.160 main 3482 3482 ________P_____ -1 -11.4222 -140.160 30 997 5 151
1983022S10218 1983 5 SP MM NANO 1983-01-22 09:00:00 NR -11.6151 -140.070 main 3490 3488 ________P_____ -1 -11.6151 -140.070 30 997 4 157
1983022S10218 1983 5 SP MM NANO 1983-01-22 12:00:00 NR -11.8000 -140.000 30 997 wellington main 3498 3496 ________O_____ -1 -11.8000 -140.000 30 997 4 156
1983022S10218 1983 5 SP MM NANO 1983-01-22 15:00:00 NR -11.9740 -139.902 main 3506 3505 ________P_____ -1 -11.9740 -139.902 30 997 4 153
1983022S10218 1983 5 SP MM NANO 1983-01-22 18:00:00 NR -12.1425 -139.820 main 3515 3513 ________P_____ -1 -12.1425 -139.820 30 997 4 157
1983022S10218 1983 5 SP MM NANO 1983-01-22 21:00:00 NR -12.3147 -139.752 main 3513 3513 ________P_____ -1 -12.3147 -139.752 30 997 4 161
1983022S10218 1983 5 SP MM NANO 1983-01-23 00:00:00 NR -12.5000 -139.700 30 997 wellington main 3521 3519 ________O_____ -1 -12.5000 -139.700 30 997 4 164
1983022S10218 1983 5 SP MM NANO 1983-01-23 03:00:00 NR -12.7065 -139.640 main 3530 3527 ________P_____ -1 -12.7065 -139.640 32 995 4 167
1983022S10218 1983 5 SP MM NANO 1983-01-23 06:00:00 NR -12.9275 -139.598 main 3527 3525 ________P_____ -1 -12.9275 -139.598 35 993 5 173
1983022S10218 1983 5 SP MM NANO 1983-01-23 09:00:00 NR -13.1597 -139.581 main 3524 3522 ________P_____ -1 -13.1597 -139.581 37 991 5 183
1983022S10218 1983 5 SP MM NANO 1983-01-23 12:00:00 NR -13.4000 -139.600 40 990 wellington main 3522 3521 ________O_____ -1 -13.4000 -139.600 40 990 5 189
1983022S10218 1983 5 SP MM NANO 1983-01-23 15:00:00 NR -13.6387 -139.652 main 3510 3507 ________P_____ -1 -13.6387 -139.652 42 988 5 196
1983022S10218 1983 5 SP MM NANO 1983-01-23 18:00:00 NR -13.8850 -139.740 main 3507 3484 ________P_____ -1 -13.8850 -139.740 45 987 5 202
1983022S10218 1983 5 SP MM NANO 1983-01-23 21:00:00 NR -14.1387 -139.858 main 3484 3472 ________P_____ -1 -14.1387 -139.858 47 986 6 206
1983022S10218 1983 5 SP MM NANO 1983-01-24 00:00:00 NR -14.4000 -140.000 50 985 wellington main 3472 3449 ________O_____ -1 -14.4000 -140.000 50 985 6 210
1983022S10218 1983 5 SP MM NANO 1983-01-24 03:00:00 NR -14.6598 -140.170 main 3449 3437 ________P_____ -1 -14.6598 -140.170 51 983 6 213
1983022S10218 1983 5 SP MM NANO 1983-01-24 06:00:00 NR -14.9277 -140.357 main 3426 3414 ________P_____ -1 -14.9277 -140.357 52 982 7 213
1983022S10218 1983 5 SP MM NANO 1983-01-24 09:00:00 NR -15.2067 -140.541 main 3414 3392 ________P_____ -1 -15.2067 -140.541 53 981 7 210
1983022S10218 1983 5 SP MM NANO 1983-01-24 12:00:00 NR -15.5000 -140.700 55 980 wellington main 3392 3381 ________O_____ -1 -15.5000 -140.700 55 980 7 205
1983022S10218 1983 5 SP MM NANO 1983-01-24 15:00:00 NR -15.8065 -140.836 main 3381 3349 ________P_____ -1 -15.8065 -140.836 56 978 9 206
1983022S10218 1983 5 SP MM NANO 1983-01-24 18:00:00 NR -16.3019 -141.112 main 3349 3349 ________P_O___ -1 -16.1274 -140.940 57 977 -17.0000 -141.800 2 9 195
1983022S10218 1983 5 SP MM NANO 1983-01-24 21:00:00 NR -16.6649 -141.073 main 3350 3350 ________P_P___ -1 -16.4596 -140.998 58 976 -17.0754 -141.221 2 7 169
1983022S10218 1983 5 SP MM NANO 1983-01-25 00:00:00 TS -16.9637 -140.981 60 975 wellington main 3361 3361 ________O_P_O_ -1 -16.8000 -141.000 60 975 -17.1698 -140.684 2 -17.0000 -141.800 TC 35 6 148
1983022S10218 1983 5 SP MM NANO 1983-01-25 03:00:00 TS -17.1729 -140.742 main 3394 3394 ________P_P_P_ -1 -17.1142 -140.973 61 973 -17.3043 -140.229 2 -17.0276 -141.305 TC 40 6 132
1983022S10218 1983 5 SP MM NANO 1983-01-25 06:00:00 TS -17.3689 -140.503 main 3416 3416 ________P_O_O_ -1 -17.4396 -140.884 62 972 -17.5000 -139.900 2 -17.1000 -140.800 TC 45 6 133
1983022S10218 1983 5 SP MM NANO 1983-01-25 09:00:00 TS -17.6074 -140.247 main 3448 3448 ________P_P_P_ -1 -17.7953 -140.728 63 971 -17.7719 -139.716 2 -17.2551 -140.298 TC 50 7 140
1983022S10218 1983 5 SP MM NANO 1983-01-25 12:00:00 TS -17.9361 -140.004 65 970 wellington main 3471 3471 ________O_P_O_ -1 -18.2000 -140.500 65 970 -18.1083 -139.613 2 -17.5000 -139.900 TC 55 8 151
1983022S10218 1983 5 SP MM NANO 1983-01-25 15:00:00 TS -18.3441 -139.815 main 3495 3495 ________P_P_P_ -1 -18.7143 -140.237 65 970 -18.4906 -139.503 2 -17.8273 -139.705 TC 60 9 156
1983022S10218 1983 5 SP MM NANO 1983-01-25 18:00:00 TS -18.7902 -139.600 main 3519 3519 ________P_O_O_ -1 -19.2706 -139.899 65 970 -18.9000 -139.300 2 -18.2000 -139.600 TC 65 981 10 151
1983022S10218 1983 5 SP MM NANO 1983-01-25 21:00:00 TS -19.2238 -139.296 main 3554 3554 ________P_P_P_ -1 -19.8167 -139.486 65 970 -19.3200 -138.900 2 -18.5348 -139.502 TC 65 11 142
1983022S10218 1983 5 SP MM NANO 1983-01-26 00:00:00 TS -19.6526 -138.898 65 970 wellington main 3601 3601 ________O_P_O_ -1 -20.3000 -139.000 65 970 -19.7578 -138.393 2 -18.9000 -139.300 TC 65 12 135
1983022S10218 1983 5 SP MM NANO 1983-01-26 03:00:00 TS -20.0487 -138.433 main 3656 3656 ________P_P_P_ -1 -20.6119 -138.625 -20.1917 -137.815 2 -19.3426 -138.860 TC 62 12 129
1983022S10218 1983 5 SP MM NANO 1983-01-26 06:00:00 TS -20.4124 -137.901 main 3712 3712 ________P_O_O_ -1 -20.8373 -138.203 -20.6000 -137.200 2 -19.8000 -138.300 TC 60 13 125
1983022S10218 1983 5 SP MM NANO 1983-01-26 09:00:00 TS -20.7774 -137.327 main 3779 3779 ________P_P_P_ -1 -21.0082 -137.684 -20.9686 -136.643 2 -20.2152 -137.743 TC 50 13 121
1983022S10218 1983 5 SP MM NANO 1983-01-26 12:00:00 TS -21.1055 -136.667 main 3845 3845 ________P_P_O_ -1 -21.1559 -137.013 -21.3078 -136.053 2 -20.6000 -137.200 TC 40 15 115
1983022S10218 1983 5 SP MM NANO 1983-01-26 15:00:00 TS -21.4087 -135.868 main 3931 3931 ________P_P___ -1 -21.3104 -136.137 -21.6181 -135.412 2 TC 18 109
1983022S10218 1983 5 SP MM NANO 1983-01-26 18:00:00 NR -21.7000 -134.850 55 980 wellington main 4037 4037 ________O_O___ -1 -21.5000 -135.000 55 980 -21.9000 -134.700 2 21 104
1983022S10218 1983 5 SP MM NANO 1983-01-26 21:00:00 NR -21.9118 -133.687 main 4163 4163 ________P_P___ -1 -21.7247 -133.529 52 982 -22.0989 -133.846 2 23 101
1983022S10218 1983 5 SP MM NANO 1983-01-27 00:00:00 NR -22.1390 -132.466 50 985 wellington main 4288 4288 ________O_P___ -1 -22.0000 -132.000 50 985 -22.2779 -132.931 2 22 104
1983022S10218 1983 5 SP MM NANO 1983-01-27 03:00:00 NR -22.4310 -131.396 main 4404 4404 ________P_P___ -1 -22.3693 -130.766 -22.4927 -132.027 2 20 110
1983022S10218 1983 5 SP MM NANO 1983-01-27 06:00:00 NR -22.8187 -130.461 main 4500 4500 ________P_O___ -1 -22.8373 -129.722 -22.8000 -131.200 2 18 119
1983022S10218 1983 5 SP MM NANO 1983-01-27 09:00:00 NR -23.3174 -129.663 main 4587 4587 ________P_P___ -1 -23.3925 -128.825 -23.2423 -130.502 2 19 127
1983022S10218 1983 5 SP MM NANO 1983-01-27 12:00:00 NR -23.9263 -128.837 main 4685 4685 ________P_P___ -1 -24.0222 -128.031 -23.7984 -129.911 2 20 130
1983022S10218 1983 5 SP MM NANO 1983-01-27 15:00:00 NR -24.6185 -127.994 main 4736 4695 ________P_P___ -1 -24.7125 -127.297 -24.4305 -129.389 2 22 132
1983022S10218 1983 5 SP MM NANO 1983-01-27 18:00:00 NR -25.3794 -127.041 main 4692 4637 ________P_O___ -1 -25.4492 -126.577 -25.1000 -128.900 2 25 129
1983022S10218 1983 5 SP MM NANO 1983-01-27 21:00:00 NR -26.2171 -125.826 main 4635 4616 ________P_____ -1 -26.2171 -125.826 2 25 132
1983022S10218 1983 5 SP MM NANO 1983-01-28 00:00:00 NR -27.0000 -125.000 40 990 wellington main 4616 4587 ________O_____ -1 -27.0000 -125.000 40 990 2 22 135
1983022S10218 1983 5 SP MM NANO 1983-01-28 03:00:00 NR -27.7833 -124.061 main 4594 4552 ________P_____ -1 -27.7833 -124.061 2 24 132
1983022S10218 1983 5 SP MM NANO 1983-01-28 06:00:00 NR -28.5621 -123.008 main 4537 4405 ________P_____ -1 -28.5621 -123.008 25 129
1983022S10218 1983 5 SP MM NANO 1983-01-28 09:00:00 NR -29.3340 -121.855 main 4405 4259 ________P_____ -1 -29.3340 -121.855 26 126
1983022S10218 1983 5 SP MM NANO 1983-01-28 12:00:00 NR -30.0964 -120.611 main 4252 4113 ________P_____ -1 -30.0964 -120.611 27 124
1983022S10218 1983 5 SP MM NANO 1983-01-28 15:00:00 NR -30.8466 -119.289 main 4106 3960 ________P_____ -1 -30.8466 -119.289 28 123
1983022S10218 1983 5 SP MM NANO 1983-01-28 18:00:00 NR -31.5820 -117.904 main 3946 3794 ________P_____ -1 -31.5820 -117.904 28 121
1983022S10218 1983 5 SP MM NANO 1983-01-28 21:00:00 NR -32.3004 -116.469 main 3794 3642 ________P_____ -1 -32.3004 -116.469 28 120
1983022S10218 1983 5 SP MM NANO 1983-01-29 00:00:00 NR -33.0000 -115.000 main 3635 ________O_____ -1 -33.0000 -115.000 30 997 28 120

デジタル台風データ・検索

IBTrACS Databaseについて

本データベースは、米国NOAAが公開する1842年以降の世界の熱帯低気圧のベストトラックデータアーカイブInternational Best Track Archive for Climate Stewardship (IBTrACS)を、ウェブで閲覧しやすい形式に変換したものです。

最終更新日:2021-12-03